createdAt,value
2024-02-19T00:02:26.136Z,6.35
2024-02-19T00:04:58.630Z,5.60
2024-02-19T00:07:31.209Z,5.97
2024-02-19T00:10:04.425Z,5.15
2024-02-19T00:12:36.748Z,5.07
2024-02-19T00:15:09.688Z,4.60
2024-02-19T00:17:41.966Z,4.75
2024-02-19T00:20:14.288Z,5.07
2024-02-19T00:22:46.396Z,3.72
2024-02-19T00:25:19.398Z,4.32
2024-02-19T00:27:51.643Z,4.80
2024-02-19T00:30:23.943Z,3.60
2024-02-19T00:32:56.277Z,4.22
2024-02-19T00:35:28.600Z,4.35
2024-02-19T00:38:01.009Z,4.70
2024-02-19T00:40:34.377Z,4.30
2024-02-19T00:43:07.058Z,3.85
2024-02-19T00:45:39.480Z,5.27
2024-02-19T00:48:11.951Z,4.40
2024-02-19T00:50:44.215Z,4.80
2024-02-19T00:53:16.952Z,4.53
2024-02-19T00:55:52.005Z,3.78
2024-02-19T00:58:25.917Z,4.45
2024-02-19T01:00:59.948Z,3.10
2024-02-19T01:03:32.444Z,3.08
2024-02-19T01:06:05.227Z,3.25
2024-02-19T01:08:37.736Z,2.90
2024-02-19T01:11:11.939Z,2.00
2024-02-19T01:13:44.182Z,2.28
2024-02-19T01:16:16.556Z,2.00
2024-02-19T01:18:50.066Z,2.25
2024-02-19T01:21:22.384Z,1.77
2024-02-19T01:23:54.687Z,1.40
2024-02-19T01:26:26.898Z,1.80
2024-02-19T01:28:59.250Z,1.70
2024-02-19T01:31:33.072Z,1.60
2024-02-19T01:34:05.768Z,1.42
2024-02-19T01:36:38.198Z,1.13
2024-02-19T01:39:10.406Z,0.90
2024-02-19T01:41:42.639Z,1.30
2024-02-19T01:44:14.840Z,1.00
2024-02-19T01:46:47.596Z,0.90
2024-02-19T01:49:20.987Z,0.93
2024-02-19T01:51:53.819Z,0.88
2024-02-19T01:54:26.238Z,0.77
2024-02-19T01:56:58.618Z,0.70
2024-02-19T01:59:33.242Z,0.60
2024-02-19T02:02:05.616Z,0.38
2024-02-19T02:04:38.134Z,0.50
2024-02-19T02:07:10.736Z,0.73
2024-02-19T02:09:44.186Z,0.60
2024-02-19T02:12:16.534Z,0.70
2024-02-19T02:14:48.719Z,0.52
2024-02-19T02:17:20.854Z,0.60
2024-02-19T02:19:53.204Z,0.50
2024-02-19T02:22:25.867Z,0.50
2024-02-19T02:24:58.615Z,0.57
2024-02-19T02:27:31.141Z,0.50
2024-02-19T02:30:10.940Z,0.50
2024-02-19T02:32:43.330Z,0.47
2024-02-19T02:35:16.630Z,0.50
2024-02-19T02:37:48.841Z,0.60
2024-02-19T02:40:21.295Z,0.50
2024-02-19T02:42:53.630Z,2.50
2024-02-19T02:45:25.919Z,0.50
2024-02-19T02:47:58.245Z,0.60
2024-02-19T02:50:31.155Z,0.63
2024-02-19T02:53:03.355Z,0.65
2024-02-19T02:55:35.609Z,0.45
2024-02-19T02:58:07.859Z,0.30
2024-02-19T03:00:40.218Z,0.60
2024-02-19T03:03:12.668Z,0.60
2024-02-19T03:05:44.962Z,0.40
2024-02-19T03:08:17.183Z,0.50
2024-02-19T03:10:49.489Z,0.50
2024-02-19T03:13:21.787Z,0.45
2024-02-19T03:15:54.256Z,0.40
2024-02-19T03:18:28.066Z,0.25
2024-02-19T03:21:01.588Z,0.40
2024-02-19T03:23:33.826Z,0.50
2024-02-19T03:26:06.553Z,0.30
2024-02-19T03:28:38.780Z,0.43
2024-02-19T03:31:11.031Z,0.40
2024-02-19T03:33:43.900Z,0.40
2024-02-19T03:36:17.835Z,0.40
2024-02-19T03:38:50.570Z,0.85
2024-02-19T03:41:22.765Z,0.40
2024-02-19T03:43:54.951Z,0.50
2024-02-19T03:46:27.567Z,0.52
2024-02-19T03:48:59.895Z,0.60
2024-02-19T03:51:32.216Z,0.30
2024-02-19T03:54:04.575Z,0.32
2024-02-19T03:56:37.346Z,0.45
2024-02-19T03:59:09.674Z,0.70
2024-02-19T04:01:41.992Z,0.60
2024-02-19T04:04:16.361Z,0.32
2024-02-19T04:06:48.887Z,0.40
2024-02-19T04:09:21.433Z,0.60
2024-02-19T04:11:53.759Z,0.50
2024-02-19T04:14:26.543Z,0.57
2024-02-19T04:16:58.711Z,0.30
2024-02-19T04:19:31.762Z,0.80
2024-02-19T04:22:04.171Z,0.50
2024-02-19T04:24:36.764Z,0.77
2024-02-19T04:27:08.990Z,0.57
2024-02-19T04:29:41.289Z,0.50
2024-02-19T04:32:13.901Z,0.60
2024-02-19T04:34:46.192Z,0.38
2024-02-19T04:37:18.568Z,0.60
2024-02-19T04:39:51.240Z,0.55
2024-02-19T04:42:23.990Z,0.52
2024-02-19T04:44:56.172Z,0.90
2024-02-19T04:47:28.601Z,0.57
2024-02-19T04:50:01.271Z,0.50
2024-02-19T04:52:33.584Z,0.83
2024-02-19T04:55:06.172Z,0.40
2024-02-19T04:57:38.763Z,0.50
2024-02-19T05:00:12.243Z,0.50
2024-02-19T05:05:16.756Z,0.43
2024-02-19T05:07:49.416Z,0.53
2024-02-19T05:10:22.035Z,0.82
2024-02-19T05:12:54.560Z,1.02
2024-02-19T05:15:27.034Z,0.68
2024-02-19T05:17:59.494Z,0.70
2024-02-19T05:20:31.757Z,0.95
2024-02-19T05:23:05.267Z,0.85
2024-02-19T05:25:37.441Z,1.08
2024-02-19T05:28:09.973Z,0.90
2024-02-19T05:30:42.259Z,1.05
2024-02-19T05:33:19.709Z,1.13
2024-02-19T05:35:52.047Z,1.50
2024-02-19T05:38:25.066Z,1.15
2024-02-19T05:40:57.254Z,1.20
2024-02-19T05:43:30.167Z,1.40
2024-02-19T05:46:02.384Z,1.70
2024-02-19T05:48:35.328Z,1.38
2024-02-19T05:51:07.565Z,1.38
2024-02-19T05:53:40.136Z,1.77
2024-02-19T05:56:12.988Z,1.40
2024-02-19T05:58:46.453Z,1.70
2024-02-19T06:01:19.708Z,1.52
2024-02-19T06:03:52.194Z,1.77
2024-02-19T06:06:24.841Z,1.70
2024-02-19T06:08:57.618Z,1.40
2024-02-19T06:11:32.266Z,1.98
2024-02-19T06:14:04.786Z,1.48
2024-02-19T06:16:37.119Z,1.77
2024-02-19T06:19:10.583Z,1.73
2024-02-19T06:24:15.815Z,3.45
2024-02-19T06:26:48.008Z,7.18
2024-02-19T06:29:20.770Z,3.87
2024-02-19T06:31:55.823Z,5.72
2024-02-19T06:34:29.523Z,4.70
2024-02-19T06:37:01.891Z,4.50
2024-02-19T06:39:34.690Z,3.60
2024-02-19T06:42:06.981Z,2.90
2024-02-19T06:44:39.596Z,3.85
2024-02-19T06:47:14.503Z,2.50
2024-02-19T06:49:46.896Z,2.33
2024-02-19T06:52:24.544Z,3.17
2024-02-19T06:54:56.804Z,2.28
2024-02-19T06:57:29.247Z,2.40
2024-02-19T07:00:01.533Z,2.20
2024-02-19T07:02:33.724Z,2.38
2024-02-19T07:05:09.068Z,1.67
2024-02-19T07:07:42.780Z,2.25
2024-02-19T07:10:15.221Z,1.52
2024-02-19T07:12:47.622Z,1.60
2024-02-19T07:15:19.940Z,1.52
2024-02-19T07:17:52.211Z,1.55
2024-02-19T07:20:24.539Z,2.00
2024-02-19T07:22:57.076Z,1.75
2024-02-19T07:25:29.614Z,1.63
2024-02-19T07:28:02.896Z,1.65
2024-02-19T07:30:37.146Z,1.90
2024-02-19T07:33:09.839Z,1.92
2024-02-19T07:35:42.166Z,2.30
2024-02-19T07:38:14.410Z,1.92
2024-02-19T07:40:47.371Z,1.92
2024-02-19T07:43:19.698Z,1.65
2024-02-19T07:45:52.224Z,1.83
2024-02-19T07:48:24.624Z,1.75
2024-02-19T07:50:56.921Z,1.25
2024-02-19T07:53:29.366Z,1.80
2024-02-19T07:56:08.545Z,1.00
2024-02-19T07:58:40.875Z,0.90
2024-02-19T08:01:13.592Z,1.10
2024-02-19T08:03:46.223Z,0.90
2024-02-19T08:06:18.721Z,1.37
2024-02-19T08:08:51.222Z,0.90
2024-02-19T08:11:24.740Z,1.08
2024-02-19T08:13:57.125Z,1.33
2024-02-19T08:16:29.688Z,1.52
2024-02-19T08:19:02.079Z,1.45
2024-02-19T08:21:34.419Z,1.80
2024-02-19T08:24:06.926Z,1.80
2024-02-19T08:26:40.079Z,2.08
2024-02-19T08:29:12.515Z,2.00
2024-02-19T08:31:44.772Z,2.03
2024-02-19T08:34:18.191Z,1.67
2024-02-19T08:39:23.515Z,2.35
2024-02-19T08:41:58.247Z,2.33
2024-02-19T08:44:30.435Z,2.10
2024-02-19T08:47:08.823Z,2.30
2024-02-19T08:49:42.750Z,2.33
2024-02-19T08:52:15.577Z,1.70
2024-02-19T08:54:47.962Z,1.67
2024-02-19T08:57:21.402Z,2.30
2024-02-19T08:59:53.632Z,2.22
2024-02-19T09:02:26.209Z,1.80
2024-02-19T09:04:59.504Z,2.27
2024-02-19T09:07:33.180Z,2.65
2024-02-19T09:10:06.394Z,2.22
2024-02-19T09:12:38.674Z,2.80
2024-02-19T09:15:11.187Z,2.47
2024-02-19T09:17:43.619Z,2.58
2024-02-19T09:20:18.379Z,2.78
2024-02-19T09:22:50.838Z,2.42
2024-02-19T09:25:25.142Z,2.45
2024-02-19T09:27:57.636Z,2.67
2024-02-19T09:30:29.846Z,2.72
2024-02-19T09:33:02.169Z,2.45
2024-02-19T09:35:34.964Z,2.30
2024-02-19T09:38:07.712Z,2.83
2024-02-19T09:40:39.924Z,2.80
2024-02-19T09:43:12.151Z,2.75
2024-02-19T09:45:45.193Z,2.60
2024-02-19T09:48:20.609Z,2.30
2024-02-19T09:50:54.961Z,2.40
2024-02-19T09:53:30.954Z,2.38
2024-02-19T09:56:03.373Z,2.17
2024-02-19T09:58:37.211Z,2.45
2024-02-19T10:01:11.345Z,2.00
2024-02-19T10:03:43.830Z,1.80
2024-02-19T10:06:16.415Z,1.58
2024-02-19T10:08:48.773Z,2.10
2024-02-19T10:11:21.365Z,1.65
2024-02-19T10:13:54.199Z,1.52
2024-02-19T10:16:26.359Z,1.60
2024-02-19T10:19:08.547Z,1.90
2024-02-19T10:21:41.276Z,1.40
2024-02-19T10:24:14.310Z,1.63
2024-02-19T10:26:47.506Z,1.75
2024-02-19T10:29:20.349Z,1.83
2024-02-19T10:31:52.750Z,1.20
2024-02-19T10:34:25.004Z,1.45
2024-02-19T10:36:57.440Z,1.92
2024-02-19T10:39:33.032Z,1.23
2024-02-19T10:42:05.824Z,1.35
2024-02-19T10:44:39.110Z,1.47
2024-02-19T10:47:11.757Z,1.10
2024-02-19T10:49:51.026Z,1.23
2024-02-19T10:52:26.360Z,1.33
2024-02-19T10:55:06.194Z,1.08
2024-02-19T10:57:55.812Z,1.08
2024-02-19T11:00:29.681Z,0.93
2024-02-19T11:03:09.985Z,1.15
2024-02-19T11:05:47.363Z,1.20
2024-02-19T11:08:24.584Z,1.30
2024-02-19T11:10:59.050Z,1.15
2024-02-19T11:13:31.481Z,1.20
2024-02-19T11:16:04.971Z,1.35
2024-02-19T11:18:37.572Z,1.40
2024-02-19T11:21:11.030Z,1.42
2024-02-19T11:23:43.231Z,1.65
2024-02-19T11:26:16.019Z,1.33
2024-02-19T11:28:55.182Z,1.60
2024-02-19T11:31:30.097Z,1.58
2024-02-19T11:34:02.408Z,1.20
2024-02-19T11:36:36.168Z,1.60
2024-02-19T11:39:09.129Z,1.23
2024-02-19T11:41:45.239Z,1.02
2024-02-19T11:44:18.535Z,1.50
2024-02-19T11:49:27.690Z,1.70
2024-02-19T11:52:07.792Z,1.50
2024-02-19T11:54:44.284Z,1.65
2024-02-19T11:57:16.962Z,1.35
2024-02-19T11:59:49.183Z,1.33
2024-02-19T12:02:22.614Z,1.20
2024-02-19T12:07:29.114Z,1.95
2024-02-19T12:10:02.658Z,2.00
2024-02-19T12:12:34.958Z,1.63
2024-02-19T12:15:17.037Z,1.77
2024-02-19T12:17:53.959Z,1.50
2024-02-19T12:20:26.380Z,1.60
2024-02-19T12:22:58.778Z,1.73
2024-02-19T12:25:31.021Z,1.60
2024-02-19T12:28:03.519Z,1.35
2024-02-19T12:30:36.198Z,1.85
2024-02-19T12:33:09.726Z,1.42
2024-02-19T12:38:15.909Z,1.17
2024-02-19T12:43:21.196Z,1.60
2024-02-19T12:45:53.502Z,1.02
2024-02-19T12:48:26.447Z,1.10
2024-02-19T12:50:59.072Z,1.17
2024-02-19T12:53:31.483Z,1.08
2024-02-19T12:56:07.795Z,1.08
2024-02-19T12:58:40.678Z,1.20
2024-02-19T13:01:23.906Z,1.30
2024-02-19T13:04:03.747Z,0.90
2024-02-19T13:06:36.260Z,0.80
2024-02-19T13:09:11.387Z,1.00
2024-02-19T13:11:45.340Z,1.17
2024-02-19T13:14:18.981Z,1.30
2024-02-19T13:17:02.023Z,1.17
2024-02-19T13:19:39.433Z,1.00
2024-02-19T13:22:11.898Z,1.25
2024-02-19T13:24:44.206Z,0.90
2024-02-19T13:27:16.918Z,0.82
2024-02-19T13:29:49.106Z,1.00
2024-02-19T13:32:21.753Z,1.23
2024-02-19T13:34:57.065Z,1.13
2024-02-19T13:37:30.038Z,0.68
2024-02-19T13:40:06.467Z,1.10
2024-02-19T13:42:42.600Z,0.80
2024-02-19T13:45:15.689Z,1.02
2024-02-19T13:47:48.465Z,0.80
2024-02-19T13:50:21.394Z,0.85
2024-02-19T13:52:54.200Z,1.20
2024-02-19T13:55:26.736Z,1.07
2024-02-19T13:57:59.106Z,1.08
2024-02-19T14:00:31.980Z,0.88
2024-02-19T14:03:04.581Z,1.17
2024-02-19T14:05:38.588Z,1.07
2024-02-19T14:08:12.493Z,0.90
2024-02-19T14:10:49.432Z,1.00
2024-02-19T14:13:22.016Z,1.33
2024-02-19T14:15:54.587Z,1.10
2024-02-19T14:18:26.916Z,0.90
2024-02-19T14:20:59.806Z,0.77
2024-02-19T14:23:32.086Z,0.80
2024-02-19T14:26:04.510Z,1.20
2024-02-19T14:28:37.293Z,0.93
2024-02-19T14:31:09.595Z,0.97
2024-02-19T14:33:42.504Z,1.33
2024-02-19T14:36:15.117Z,1.38
2024-02-19T14:38:48.098Z,0.75
2024-02-19T14:41:22.415Z,0.90
2024-02-19T14:43:56.112Z,1.05
2024-02-19T14:46:28.971Z,1.10
2024-02-19T14:49:10.986Z,0.95
2024-02-19T14:51:44.762Z,1.00
2024-02-19T14:54:17.021Z,1.38
2024-02-19T14:56:49.613Z,1.40
2024-02-19T14:59:22.172Z,1.27
2024-02-19T15:01:54.519Z,1.10
2024-02-19T15:04:26.872Z,1.30
2024-02-19T15:07:01.861Z,1.20
2024-02-19T15:09:34.669Z,1.13
2024-02-19T15:12:07.492Z,1.45
2024-02-19T15:14:39.653Z,1.40
2024-02-19T15:17:12.487Z,1.50
2024-02-19T15:19:45.322Z,1.60
2024-02-19T15:22:18.018Z,1.25
2024-02-19T15:24:50.337Z,1.10
2024-02-19T15:27:27.398Z,1.50
2024-02-19T15:30:00.382Z,2.13
2024-02-19T15:32:32.865Z,1.88
2024-02-19T15:35:06.583Z,1.98
2024-02-19T15:37:39.003Z,1.80
2024-02-19T15:40:11.524Z,2.00
2024-02-19T15:42:43.795Z,1.70
2024-02-19T15:45:16.154Z,1.40
2024-02-19T15:47:48.528Z,1.35
2024-02-19T15:50:21.286Z,1.30
2024-02-19T15:52:58.962Z,1.80
2024-02-19T15:58:11.459Z,2.10
2024-02-19T16:00:47.885Z,1.60
2024-02-19T16:03:21.401Z,1.40
2024-02-19T16:06:02.542Z,1.90
2024-02-19T16:08:35.575Z,1.20
2024-02-19T16:11:09.765Z,1.30
2024-02-19T16:13:45.274Z,1.70
2024-02-19T16:16:19.272Z,1.70
2024-02-19T16:18:51.866Z,1.58
2024-02-19T16:21:24.209Z,3.05
2024-02-19T16:23:57.091Z,2.58
2024-02-19T16:26:29.464Z,2.00
2024-02-19T16:29:02.220Z,2.42
2024-02-19T16:31:34.722Z,2.33
2024-02-19T16:34:08.066Z,1.97
2024-02-19T16:36:41.147Z,1.90
2024-02-19T16:39:13.565Z,1.70
2024-02-19T16:41:45.792Z,1.90
2024-02-19T16:44:18.238Z,2.38
2024-02-19T16:46:50.632Z,2.03
2024-02-19T16:49:22.969Z,8.02
2024-02-19T16:51:55.390Z,6.78
2024-02-19T16:54:28.545Z,2.60
2024-02-19T16:57:00.830Z,3.40
2024-02-19T16:59:33.325Z,2.22
2024-02-19T17:02:06.574Z,2.47
2024-02-19T17:04:41.011Z,2.70
2024-02-19T17:07:13.967Z,2.15
2024-02-19T17:09:46.827Z,3.20
2024-02-19T17:12:19.096Z,4.00
2024-02-19T17:14:51.563Z,3.40
2024-02-19T17:17:24.455Z,4.88
2024-02-19T17:19:57.653Z,4.00
2024-02-19T17:22:30.167Z,4.35
2024-02-19T17:25:03.351Z,2.65
2024-02-19T17:27:36.809Z,3.28
2024-02-19T17:30:09.750Z,3.75
2024-02-19T17:32:42.181Z,6.18
2024-02-19T17:35:14.816Z,5.20
2024-02-19T17:37:47.091Z,4.33
2024-02-19T17:40:19.925Z,3.13
2024-02-19T17:42:52.495Z,4.30
2024-02-19T17:45:24.747Z,2.92
2024-02-19T17:47:57.529Z,2.80
2024-02-19T17:50:29.764Z,3.13
2024-02-19T17:53:01.985Z,2.65
2024-02-19T17:55:34.482Z,2.35
2024-02-19T17:58:06.963Z,3.25
2024-02-19T18:00:42.326Z,4.10
2024-02-19T18:03:14.835Z,3.28
2024-02-19T18:05:47.226Z,3.40
2024-02-19T18:08:22.964Z,2.95
2024-02-19T18:10:56.125Z,3.38
2024-02-19T18:13:28.625Z,3.50
2024-02-19T18:16:01.231Z,3.05
2024-02-19T18:18:34.498Z,3.30
2024-02-19T18:21:10.417Z,3.67
2024-02-19T18:23:42.638Z,3.17
2024-02-19T18:26:15.187Z,3.15
2024-02-19T18:28:47.449Z,3.53
2024-02-19T18:31:19.754Z,3.72
2024-02-19T18:33:52.197Z,4.20
2024-02-19T18:36:26.696Z,3.97
2024-02-19T18:38:58.945Z,3.75
2024-02-19T18:41:33.477Z,3.90
2024-02-19T18:44:07.216Z,4.10
2024-02-19T18:46:39.401Z,3.78
2024-02-19T18:49:11.785Z,3.78
2024-02-19T18:51:47.472Z,5.43
2024-02-19T18:54:20.167Z,4.90
2024-02-19T18:56:54.530Z,4.45
2024-02-19T18:59:32.532Z,4.45
2024-02-19T19:02:06.317Z,4.03
2024-02-19T19:07:12.666Z,4.20
2024-02-19T19:09:45.680Z,3.70
2024-02-19T19:12:18.168Z,3.90
2024-02-19T19:14:50.348Z,3.90
2024-02-19T19:17:22.623Z,5.20
2024-02-19T19:19:55.056Z,4.65
2024-02-19T19:22:30.021Z,4.95
2024-02-19T19:25:03.308Z,4.07
2024-02-19T19:27:35.917Z,3.92
2024-02-19T19:30:09.070Z,3.63
2024-02-19T19:32:41.707Z,4.63
2024-02-19T19:35:15.893Z,5.30
2024-02-19T19:37:48.554Z,5.13
2024-02-19T19:40:20.900Z,5.32
2024-02-19T19:42:54.216Z,5.50
2024-02-19T19:45:27.126Z,5.88
2024-02-19T19:47:59.616Z,6.15
2024-02-19T19:50:32.157Z,4.30
2024-02-19T19:53:05.127Z,3.63
2024-02-19T19:55:40.405Z,4.25
2024-02-19T19:58:17.393Z,5.15
2024-02-19T20:00:53.924Z,4.95
2024-02-19T20:03:26.196Z,4.20
2024-02-19T20:05:58.478Z,3.38
2024-02-19T20:08:31.777Z,3.83
2024-02-19T20:11:04.696Z,3.78
2024-02-19T20:13:36.981Z,3.90
2024-02-19T20:16:09.185Z,5.30
2024-02-19T20:18:41.457Z,4.03
2024-02-19T20:21:13.945Z,4.72
2024-02-19T20:23:46.338Z,4.38
2024-02-19T20:26:21.756Z,4.65
2024-02-19T20:28:54.005Z,4.63
2024-02-19T20:31:27.903Z,4.50
2024-02-19T20:34:00.867Z,5.70
2024-02-19T20:36:35.944Z,5.10
2024-02-19T20:39:10.596Z,5.53
2024-02-19T20:41:44.214Z,6.43
2024-02-19T20:46:49.867Z,5.18
2024-02-19T20:49:22.385Z,6.50
2024-02-19T20:51:54.925Z,6.50
2024-02-19T20:54:27.939Z,6.20
2024-02-19T20:57:00.451Z,6.47
2024-02-19T20:59:34.188Z,7.80
2024-02-19T21:02:08.194Z,5.38
2024-02-19T21:04:40.699Z,7.63
2024-02-19T21:07:13.260Z,4.85
2024-02-19T21:09:46.562Z,5.35
2024-02-19T21:12:18.731Z,4.82
2024-02-19T21:14:50.964Z,6.28
2024-02-19T21:17:25.483Z,5.05
2024-02-19T21:20:00.205Z,5.90
2024-02-19T21:22:32.933Z,5.60
2024-02-19T21:25:05.568Z,4.82
2024-02-19T21:27:38.246Z,4.82
2024-02-19T21:30:11.637Z,4.87
2024-02-19T21:32:47.558Z,5.15
2024-02-19T21:35:20.807Z,4.88
2024-02-19T21:37:53.203Z,4.80
2024-02-19T21:40:25.747Z,4.75
2024-02-19T21:42:58.009Z,5.15
2024-02-19T21:45:30.267Z,4.65
2024-02-19T21:48:02.729Z,5.30
2024-02-19T21:50:35.158Z,4.53
2024-02-19T21:53:07.438Z,4.88
2024-02-19T21:55:39.844Z,4.70
2024-02-19T21:58:12.203Z,4.15
2024-02-19T22:00:44.740Z,4.40
2024-02-19T22:03:16.974Z,4.95
2024-02-19T22:05:49.158Z,4.57
2024-02-19T22:08:21.362Z,5.70
2024-02-19T22:10:53.651Z,5.00
2024-02-19T22:13:25.847Z,4.82
2024-02-19T22:15:58.083Z,5.40
2024-02-19T22:18:30.732Z,4.82
2024-02-19T22:21:03.906Z,4.05
2024-02-19T22:23:36.332Z,5.53
2024-02-19T22:26:09.400Z,5.30
2024-02-19T22:28:41.676Z,5.70
2024-02-19T22:31:14.369Z,5.10
2024-02-19T22:33:46.756Z,6.50
2024-02-19T22:36:19.654Z,5.35
2024-02-19T22:38:52.099Z,5.80
2024-02-19T22:41:24.306Z,5.82
2024-02-19T22:43:56.766Z,5.18
2024-02-19T22:46:29.557Z,6.03
2024-02-19T22:49:02.185Z,5.45
2024-02-19T22:51:34.722Z,5.47
2024-02-19T22:54:07.138Z,5.93
2024-02-19T22:56:39.855Z,5.25
2024-02-19T22:59:21.068Z,5.45
2024-02-19T23:01:55.456Z,4.85
2024-02-19T23:04:27.956Z,4.95
2024-02-19T23:07:00.695Z,5.30
2024-02-19T23:09:34.176Z,5.53
2024-02-19T23:12:06.843Z,5.35
2024-02-19T23:14:39.092Z,5.10
2024-02-19T23:17:13.075Z,5.47
2024-02-19T23:19:45.899Z,4.93
2024-02-19T23:22:18.250Z,5.07
2024-02-19T23:24:50.658Z,4.00
2024-02-19T23:27:24.112Z,4.90
2024-02-19T23:29:56.421Z,4.85
2024-02-19T23:32:29.263Z,4.80
2024-02-19T23:35:01.654Z,5.30
2024-02-19T23:37:34.400Z,4.45
2024-02-19T23:40:16.382Z,5.10
2024-02-19T23:42:49.422Z,5.10
2024-02-19T23:45:21.825Z,5.57
2024-02-19T23:47:54.455Z,5.10
2024-02-19T23:50:26.751Z,5.07
2024-02-19T23:52:59.179Z,4.97
2024-02-19T23:55:31.684Z,5.53
2024-02-19T23:58:04.474Z,5.90
